Main page
METAR-TAF:

METAR-TAF

Airports :

Athens International Airport

Athens, Greece

latitude: 37-56N, longitude: 023-56E, elevation: 94 m

Current weather observation

The report was made 27 minutes ago, at 07:50 UTC
Wind 18 kt from the Northeast
Temperature 24°C
Humidity 54%
Pressure 1016 hPa
Visibility 10 km or more
no clouds below 1500 m and no cumulonimbus

METAR: LGAV 220750Z 05018KT CAVOK 24/14 Q1016 NOSIG

Time: 11:17 (08:17 UTC)

Forecast

The report was made 3 hours and 17 minutes ago, at 05:00 UTC
Forecast valid from 22 at 06 UTC to 23 at 06 UTC
Wind 16 kt from the North/Northeast
Visibility 10 km or more
Few clouds at a height of 3000 ft

TAF: LGAV 220500Z 2206/2306 02016KT 9999 FEW030

Weather observations and forecasts of more than 4000 airports (METAR and TAF reports).

The available stations are represented by yellow and red dots on the map.

Hover mouse over dot to see the name of the station.

Then click to see weather observations and forecasts.

To change the map : click on the green buttons with a black cross to zoom in, on the green button with a dash to zoom out, or on the green arrows for adjacent maps.


METAR-TAF: